createdAt,value
2022-11-19T00:03:48.666Z,44.80
2022-11-19T00:08:54.006Z,44.99
2022-11-19T00:13:55.892Z,45.46
2022-11-19T00:18:57.835Z,45.93
2022-11-19T00:23:59.870Z,45.70
2022-11-19T00:29:01.817Z,45.40
2022-11-19T00:34:04.044Z,45.60
2022-11-19T00:39:05.976Z,45.43
2022-11-19T00:44:07.779Z,45.48
2022-11-19T00:49:09.747Z,45.41
2022-11-19T00:54:11.542Z,45.26
2022-11-19T00:59:13.726Z,45.42
2022-11-19T01:04:15.515Z,45.45
2022-11-19T01:09:17.542Z,45.28
2022-11-19T01:14:19.691Z,45.36
2022-11-19T01:19:24.634Z,45.29
2022-11-19T01:24:26.390Z,45.42
2022-11-19T01:29:28.418Z,45.05
2022-11-19T01:34:30.296Z,45.06
2022-11-19T01:39:32.166Z,45.25
2022-11-19T01:45:07.319Z,45.45
2022-11-19T01:50:09.195Z,45.10
2022-11-19T01:55:11.876Z,45.05
2022-11-19T02:00:14.008Z,45.05
2022-11-19T02:05:16.383Z,45.12
2022-11-19T02:10:18.581Z,45.45
2022-11-19T02:15:37.404Z,45.34
2022-11-19T02:20:42.454Z,45.26
2022-11-19T02:26:06.379Z,45.07
2022-11-19T02:31:29.745Z,45.48
2022-11-19T02:36:37.505Z,45.18
2022-11-19T02:41:52.712Z,45.31
2022-11-19T02:46:57.408Z,45.20
2022-11-19T02:52:00.795Z,45.53
2022-11-19T02:57:03.724Z,45.32
2022-11-19T03:02:26.256Z,45.20
2022-11-19T03:07:28.294Z,45.56
2022-11-19T03:12:49.879Z,45.45
2022-11-19T03:18:06.597Z,45.35
2022-11-19T03:23:18.889Z,45.17
2022-11-19T03:28:25.553Z,45.48
2022-11-19T03:33:33.610Z,45.24
2022-11-19T03:38:42.052Z,45.34
2022-11-19T03:43:48.660Z,45.30
2022-11-19T03:48:53.130Z,45.39
2022-11-19T03:53:55.150Z,45.19
2022-11-19T03:58:59.324Z,45.48
2022-11-19T04:04:19.879Z,45.07
2022-11-19T04:09:22.040Z,45.21
2022-11-19T04:14:24.059Z,45.05
2022-11-19T04:19:26.056Z,45.57
2022-11-19T04:24:28.150Z,45.41
2022-11-19T04:29:29.989Z,45.38
2022-11-19T04:34:31.777Z,45.24
2022-11-19T04:39:34.043Z,45.22
2022-11-19T04:44:36.104Z,45.08
2022-11-19T04:49:38.240Z,45.11
2022-11-19T04:54:40.922Z,45.08
2022-11-19T04:59:43.057Z,45.34
2022-11-19T05:04:44.910Z,45.23
2022-11-19T05:09:46.760Z,45.02
2022-11-19T05:14:48.772Z,45.01
2022-11-19T05:19:50.625Z,45.13
2022-11-19T05:24:52.413Z,45.17
2022-11-19T05:29:54.221Z,44.93
2022-11-19T05:34:56.133Z,45.07
2022-11-19T05:39:58.309Z,45.05
2022-11-19T05:45:00.399Z,45.15
2022-11-19T05:50:02.414Z,45.33
2022-11-19T05:55:04.551Z,45.02
2022-11-19T06:00:06.802Z,45.32
2022-11-19T06:05:09.173Z,44.92
2022-11-19T06:10:11.098Z,44.92
2022-11-19T06:15:14.319Z,45.03
2022-11-19T06:20:16.496Z,44.89
2022-11-19T06:25:18.960Z,45.04
2022-11-19T06:30:20.932Z,44.73
2022-11-19T06:35:22.705Z,45.05
2022-11-19T06:40:24.519Z,44.88
2022-11-19T06:45:26.755Z,44.73
2022-11-19T06:50:28.766Z,45.03
2022-11-19T06:55:30.686Z,44.78
2022-11-19T07:00:32.861Z,44.99
2022-11-19T07:05:34.738Z,45.02
2022-11-19T07:10:36.848Z,44.88
2022-11-19T07:15:39.037Z,44.79
2022-11-19T07:20:41.892Z,44.97
2022-11-19T07:25:44.003Z,44.93
2022-11-19T07:30:46.031Z,44.74
2022-11-19T07:35:47.891Z,44.89
2022-11-19T07:40:54.424Z,46.54
2022-11-19T07:45:56.236Z,47.20
2022-11-19T07:50:58.037Z,45.99
2022-11-19T07:56:00.794Z,45.69
2022-11-19T08:01:10.920Z,45.33
2022-11-19T08:06:14.520Z,44.41
2022-11-19T08:11:17.108Z,44.79
2022-11-19T08:16:37.912Z,43.89
2022-11-19T08:21:45.260Z,43.72
2022-11-19T08:26:47.483Z,43.80
2022-11-19T08:31:50.150Z,43.87
2022-11-19T08:36:52.075Z,43.83
2022-11-19T08:42:12.573Z,43.60
2022-11-19T08:47:14.632Z,43.65
2022-11-19T08:52:16.739Z,43.92
2022-11-19T08:57:18.732Z,43.90
2022-11-19T09:02:21.799Z,43.91
2022-11-19T09:07:23.744Z,43.93
2022-11-19T09:12:25.628Z,43.79
2022-11-19T09:17:27.537Z,43.71
2022-11-19T09:22:30.182Z,43.68
2022-11-19T09:27:32.091Z,43.97
2022-11-19T09:32:34.874Z,43.74
2022-11-19T09:37:36.987Z,43.70
2022-11-19T09:43:20.806Z,44.40
2022-11-19T09:48:36.073Z,44.74
2022-11-19T09:53:53.414Z,44.27
2022-11-19T09:58:57.726Z,44.87
2022-11-19T10:04:00.615Z,44.67
2022-11-19T10:09:05.213Z,44.63
2022-11-19T10:14:35.717Z,44.56
2022-11-19T10:19:47.785Z,44.60
2022-11-19T10:25:01.968Z,44.46
2022-11-19T10:30:12.795Z,44.30
2022-11-19T10:35:19.314Z,44.52
2022-11-19T10:40:24.238Z,44.29
2022-11-19T10:45:29.861Z,44.32
2022-11-19T10:50:31.862Z,44.23
2022-11-19T10:55:41.262Z,44.32
2022-11-19T11:00:43.693Z,44.22
2022-11-19T11:06:06.850Z,44.28
2022-11-19T11:11:08.808Z,44.15
2022-11-19T11:16:13.883Z,44.06
2022-11-19T11:21:33.393Z,44.51
2022-11-19T11:26:36.566Z,44.22
2022-11-19T11:31:43.873Z,43.97
2022-11-19T11:36:46.493Z,44.13
2022-11-19T11:42:07.268Z,43.15
2022-11-19T11:47:16.605Z,42.23
2022-11-19T11:52:29.776Z,42.12
2022-11-19T11:57:37.730Z,42.60
2022-11-19T12:02:39.953Z,42.46
2022-11-19T12:08:04.939Z,42.65
2022-11-19T12:13:35.496Z,42.70
2022-11-19T12:18:56.181Z,42.21
2022-11-19T12:24:18.404Z,42.22
2022-11-19T12:29:45.730Z,42.32
2022-11-19T12:34:54.064Z,41.76
2022-11-19T12:40:03.065Z,42.35
2022-11-19T12:45:24.655Z,42.26
2022-11-19T12:50:39.416Z,42.36
2022-11-19T12:55:52.155Z,42.04
2022-11-19T13:00:59.884Z,41.81
2022-11-19T13:06:07.445Z,42.81
2022-11-19T13:11:36.888Z,45.47
2022-11-19T13:16:40.628Z,45.89
2022-11-19T13:21:53.075Z,45.88
2022-11-19T13:26:59.701Z,46.71
2022-11-19T13:32:24.393Z,48.03
2022-11-19T13:37:58.523Z,48.15
2022-11-19T13:43:36.214Z,48.22
2022-11-19T13:48:46.459Z,48.34
2022-11-19T13:53:48.728Z,48.35
2022-11-19T13:58:54.744Z,48.65
2022-11-19T14:04:15.567Z,49.04
2022-11-19T14:09:42.020Z,49.32
2022-11-19T14:15:23.842Z,49.68
2022-11-19T14:20:59.276Z,49.29
2022-11-19T14:26:19.598Z,49.24
2022-11-19T14:31:22.249Z,49.57
2022-11-19T14:36:36.621Z,49.42
2022-11-19T14:41:38.482Z,48.87
2022-11-19T14:46:45.664Z,48.75
2022-11-19T14:51:54.457Z,48.33
2022-11-19T14:57:06.663Z,44.90
2022-11-19T15:02:34.206Z,42.77
2022-11-19T15:07:49.023Z,43.22
2022-11-19T15:13:22.814Z,43.14
2022-11-19T15:18:42.672Z,42.93
2022-11-19T15:24:18.566Z,43.06
2022-11-19T15:29:45.178Z,42.85
2022-11-19T15:35:09.671Z,43.03
2022-11-19T15:40:19.133Z,42.88
2022-11-19T15:45:23.712Z,42.94
2022-11-19T15:50:27.969Z,43.00
2022-11-19T15:55:31.529Z,43.32
2022-11-19T16:00:46.155Z,42.99
2022-11-19T16:06:10.943Z,43.20
2022-11-19T16:11:36.896Z,42.86
2022-11-19T16:16:58.584Z,42.82
2022-11-19T16:22:05.123Z,42.91
2022-11-19T16:27:10.941Z,43.05
2022-11-19T16:32:17.511Z,42.98
2022-11-19T16:37:22.278Z,42.88
2022-11-19T16:42:29.574Z,42.81
2022-11-19T16:47:35.958Z,43.21
2022-11-19T16:52:42.985Z,42.92
2022-11-19T16:57:50.213Z,43.38
2022-11-19T17:02:53.517Z,43.36
2022-11-19T17:08:09.649Z,43.24
2022-11-19T17:13:20.790Z,43.30
2022-11-19T17:18:35.311Z,43.26
2022-11-19T17:23:48.327Z,43.08
2022-11-19T17:28:54.333Z,43.01
2022-11-19T17:34:12.593Z,43.77
2022-11-19T17:39:15.273Z,43.23
2022-11-19T17:44:36.861Z,43.13
2022-11-19T17:49:39.038Z,43.44
2022-11-19T17:54:41.009Z,43.17
2022-11-19T17:59:42.967Z,43.34
2022-11-19T18:04:46.050Z,43.38
2022-11-19T18:09:47.833Z,43.40
2022-11-19T18:14:49.574Z,42.89
2022-11-19T18:19:51.450Z,43.25
2022-11-19T18:24:53.536Z,43.41
2022-11-19T18:29:55.255Z,43.45
2022-11-19T18:35:00.738Z,43.63
2022-11-19T18:40:04.516Z,43.47
2022-11-19T18:45:06.874Z,42.40
2022-11-19T18:50:12.539Z,42.18
2022-11-19T18:55:14.703Z,43.42
2022-11-19T19:00:17.306Z,43.45
2022-11-19T19:05:19.914Z,43.31
2022-11-19T19:10:22.032Z,43.49
2022-11-19T19:15:24.895Z,43.41
2022-11-19T19:20:27.253Z,43.50
2022-11-19T19:25:29.617Z,43.54
2022-11-19T19:30:31.662Z,43.54
2022-11-19T19:35:33.387Z,43.31
2022-11-19T19:40:35.900Z,43.76
2022-11-19T19:45:38.872Z,44.24
2022-11-19T19:50:41.217Z,44.28
2022-11-19T19:55:43.518Z,43.86
2022-11-19T20:00:45.917Z,43.74
2022-11-19T20:05:48.994Z,43.77
2022-11-19T20:10:51.002Z,44.24
2022-11-19T20:15:53.373Z,44.14
2022-11-19T20:21:01.007Z,44.48
2022-11-19T20:26:06.235Z,45.43
2022-11-19T20:31:19.744Z,44.63
2022-11-19T20:36:27.635Z,44.21
2022-11-19T20:41:48.025Z,44.25
2022-11-19T20:47:00.733Z,44.08
2022-11-19T20:52:03.757Z,44.40
2022-11-19T20:57:06.204Z,44.60
2022-11-19T21:02:09.940Z,44.60
2022-11-19T21:07:11.859Z,44.52
2022-11-19T21:12:14.186Z,44.28
2022-11-19T21:17:16.331Z,43.92
2022-11-19T21:22:19.072Z,44.12
2022-11-19T21:27:21.321Z,44.28
2022-11-19T21:32:23.331Z,44.12
2022-11-19T21:37:25.996Z,44.27
2022-11-19T21:42:28.132Z,44.44
2022-11-19T21:47:30.264Z,44.71
2022-11-19T21:52:32.186Z,44.39
2022-11-19T21:57:34.016Z,44.70
2022-11-19T22:02:35.908Z,44.47
2022-11-19T22:07:37.840Z,44.71
2022-11-19T22:12:39.872Z,44.56
2022-11-19T22:17:41.928Z,44.69
2022-11-19T22:22:45.478Z,46.33
2022-11-19T22:27:47.621Z,45.73
2022-11-19T22:32:49.545Z,46.15
2022-11-19T22:37:51.561Z,46.24
2022-11-19T22:42:53.501Z,45.80
2022-11-19T22:47:55.888Z,45.59
2022-11-19T22:52:57.966Z,45.72
2022-11-19T22:57:59.952Z,45.79
2022-11-19T23:03:01.959Z,45.29
2022-11-19T23:08:05.815Z,46.55
2022-11-19T23:13:28.659Z,45.47
2022-11-19T23:18:32.794Z,45.70
2022-11-19T23:23:35.252Z,45.76
2022-11-19T23:28:37.907Z,45.41
2022-11-19T23:33:39.915Z,45.32
2022-11-19T23:38:42.285Z,45.44
2022-11-19T23:43:44.787Z,45.34
2022-11-19T23:48:48.172Z,45.15
2022-11-19T23:53:50.210Z,45.10
2022-11-19T23:58:53.377Z,45.06
